Pagrindinis puslapis
METAR-TAF:

METAR-TAF

Oro uostai :

Dalaman, Turkija

platuma: 36-42N, ilguma: 028-47E, Aukštis: 7 m

Dabartinis oras

Ataskaita buvo paskelbta 28 minutes, ne 20:20 UTC
Vėjas 5 kt iš Rytų
Temperatūra 12°C
Drėgmė 88%
Slėgis 1022 hPa
Matomumas 10 km arba daugiau
Mažai debesys ne aukštis 3000 ft

METAR: LTBS 152020Z 08005KT 9999 FEW030 12/10 Q1022 NOSIG RMK RWY19 36004KT 330V030

Laikas: 23:48 (20:48 UTC)

Prognozė

Ataskaita buvo paskelbta 4 valandos ir 8 minutes, ne 16:40 UTC
Prognozė galioja nuo 15 metu 18 UTC su 16 metu 18 UTC
Vėjas 2 kt nuo kintamojo kryptimis
Matomumas 10 km arba daugiau
nėra debesų žemiau 1500 m ir nėra kamuolinių lietaus debesų

TAF: LTBS 151640Z 1518/1618 VRB02KT CAVOK

Orai ataskaitas ir orų prognozės (METAR, TAF).

turimą stotys yra geltonos ir raudonos taškus žemėlapyje.

Perkelti pele per norėdami pamatyti stoties vardą.

Tada spustelėkite, norėdami matyti oro stebėjimo ir prognozės.

Norėdami pakeisti žemėlapį: spustelėkite ant žalios mygtukų su juodo kryžiaus žemyn,; žalią mygtuką su brūkšneliu, jei norite nutolinti; arba žalių rodyklių gretimoms žemėlapius.


METAR-TAF: